Hermantown, MN

9:15 AM CDT on September 05, 2015 (GMT -0500)
Hermantown - Loren | Change Station
CLOSE
Current Station
Personal Weather Station
Location: Duluth, MN
Elevation: 1410 ft
Nearby Weather Stations

Elev 1410 ft 46.86 °N, 92.22 °W | Updated 7 minutes ago

Mostly Cloudy
Mostly Cloudy
70.6 °F
Feels Like 70.6 °F
N
1.0
Wind Variable Wind from ESE

Today
High -- | Low -- °F
--% Chance of Precip.
Yesterday
High -- | Low -- °F
Precip. -- in
6:33 AM 7:40 PM
Waning Gibbous, 48% visible
Pressure 29.99 in
Visibility 10.0 miles
Clouds Mostly Cloudy 1000 ft
Dew Point 67 °F
Humidity 88%
Rainfall 0.00 in
Snow Depth Not available.
UV 1 out of 12
Pollen 2.80 out of 12
Air Quality Not available.
Flu Activity Not available.
SPECI KDLH 051357Z 13012KT 10SM BKN010 22/19 A2999 RMK AO2 T02170189

More Conditions Fewer Conditions

Pressure 29.99 in
Visibility 10.0 miles
Clouds Mostly Cloudy 1000 ft
Dew Point 67 °F
Humidity 88%
Rainfall 0.00 in
Snow Depth Not available.
UV 1 out of 12
Pollen 2.80 out of 12
Air Quality Not available.
Flu Activity Not available.
SPECI KDLH 051357Z 13012KT 10SM BKN010 22/19 A2999 RMK AO2 T02170189

More Conditions Fewer Conditions

10-Day Weather Forecast

Almanac

Astronomy

Sep. 05, 2015 Rise Set
Actual Time 6:33 AM CDT 7:40 PM CDT
Civil Twilight 6:02 AM CDT 8:11 PM CDT
Nautical Twilight 5:24 AM CDT 8:49 PM CDT
Astronomical Twilight 4:44 AM CDT 9:28 PM CDT
Moon No Moon Rise 2:38 PM CDT
Length of Visible Light 14h 09m
Length of Day
13h 07m
Tomorrow will be 3m 15s shorter.
Waning Gibbous, 48% of the Moon is Illuminated
Today
Waning Gibbous
Sep 13
New
Sep 21
First Quarter
Sep 27
Full
Oct 4
Last Quarter

Today's Extremes

State Highs State Lows

Community

WunderPhotos

Upload Photos

1,852,472 photos uploaded!

Nearby

Snow Depth

Station Depth Elevation
No new snow has been reported.

Earthquake Activity

City Distance Mag. Time & Date
No recent earthquake activity has been reported nearby.
Minimum magnitude displayed is 2.5.

Coastal Water Temperatures

Place Temperature
Duluth, MN 62.1 °F

Nearby Weather Stations